Airport Name : Lann Bihoue

Other Name : Lorient

ICAO : LFRH

IATA : LRT

FAA :

Latitude : 47.760555

Longitude : -3.44

Country : France

Local Date and Time : 4/24/2018 1:08:00 AM

 

TAF (Terminal Aerodrome Forecast)

 

METAR (METeorological Aerodrome Report)

LFRH 232300Z AUTO 31002KT CAVOK 08/06 Q1022 TEMPO 2000 BR

LFRH 232230Z AUTO 30002KT CAVOK 08/06 Q1022 TEMPO 2000 BR

LFRH 232200Z AUTO 30003KT CAVOK 08/06 Q1022 NOSIG

LFRH 232130Z AUTO 29004KT CAVOK 08/06 Q1022 NOSIG

LFRH 232100Z AUTO 29004KT CAVOK 09/06 Q1022 NOSIG

LFRH 232030Z AUTO 29004KT CAVOK 09/06 Q1022 NOSIG

LFRH 232000Z AUTO 29005KT CAVOK 10/06 Q1022 NOSIG

LFRH 231930Z AUTO 28005KT CAVOK 11/06 Q1021 NOSIG